createdAt,value
2023-01-06T00:00:41.671Z,11.90
2023-01-06T00:01:42.023Z,8.80
2023-01-06T00:02:41.678Z,6.60
2023-01-06T00:03:41.613Z,9.90
2023-01-06T00:04:41.657Z,11.10
2023-01-06T00:05:42.296Z,9.10
2023-01-06T00:06:41.599Z,8.20
2023-01-06T00:07:41.572Z,7.00
2023-01-06T00:08:41.572Z,8.30
2023-01-06T00:09:41.555Z,9.60
2023-01-06T00:10:41.558Z,6.20
2023-01-06T00:11:41.541Z,5.60
2023-01-06T00:12:41.549Z,10.70
2023-01-06T00:13:41.511Z,8.40
2023-01-06T00:14:41.917Z,7.70
2023-01-06T00:15:41.514Z,9.30
2023-01-06T00:16:41.491Z,8.40
2023-01-06T00:17:41.467Z,10.20
2023-01-06T00:18:41.474Z,5.60
2023-01-06T00:19:41.439Z,9.40
2023-01-06T00:20:41.435Z,11.80
2023-01-06T00:21:41.784Z,8.20
2023-01-06T00:22:41.418Z,7.70
2023-01-06T00:23:41.414Z,7.90
2023-01-06T00:24:41.403Z,8.20
2023-01-06T00:25:41.382Z,12.40
2023-01-06T00:26:41.768Z,6.70
2023-01-06T00:27:41.365Z,7.40
2023-01-06T00:28:41.352Z,6.60
2023-01-06T00:29:41.345Z,8.80
2023-01-06T00:30:41.337Z,9.40
2023-01-06T00:31:41.322Z,7.30
2023-01-06T00:32:41.348Z,6.10
2023-01-06T00:33:41.319Z,10.40
2023-01-06T00:34:42.085Z,9.30
2023-01-06T00:35:41.277Z,9.90
2023-01-06T00:36:41.884Z,6.00
2023-01-06T00:37:41.276Z,9.00
2023-01-06T00:38:41.269Z,9.80
2023-01-06T00:39:41.244Z,7.80
2023-01-06T00:40:41.235Z,9.80
2023-01-06T00:41:41.653Z,8.70
2023-01-06T00:42:41.215Z,7.30
2023-01-06T00:43:41.201Z,10.00
2023-01-06T00:44:41.193Z,7.40
2023-01-06T00:45:41.173Z,10.10
2023-01-06T00:46:41.977Z,9.00
2023-01-06T00:47:41.157Z,7.50
2023-01-06T00:48:46.904Z,7.70
2023-01-06T00:49:41.139Z,9.10
2023-01-06T00:50:41.130Z,7.00
2023-01-06T00:51:41.151Z,10.80
2023-01-06T00:52:41.120Z,12.50
2023-01-06T00:53:41.098Z,7.30
2023-01-06T00:54:41.464Z,11.20
2023-01-06T00:55:41.061Z,10.10
2023-01-06T00:56:41.071Z,10.10
2023-01-06T00:57:41.049Z,14.30
2023-01-06T00:58:41.045Z,13.10
2023-01-06T00:59:41.025Z,9.00
2023-01-06T01:00:41.242Z,9.50
2023-01-06T01:01:41.092Z,7.20
2023-01-06T01:02:41.151Z,11.00
2023-01-06T01:03:40.993Z,12.10
2023-01-06T01:04:40.986Z,6.70
2023-01-06T01:05:41.779Z,6.20
2023-01-06T01:06:40.950Z,7.00
2023-01-06T01:07:40.952Z,9.00
2023-01-06T01:08:40.940Z,9.40
2023-01-06T01:09:40.940Z,9.30
2023-01-06T01:10:40.917Z,12.40
2023-01-06T01:11:40.904Z,8.70
2023-01-06T01:12:40.904Z,9.90
2023-01-06T01:13:41.244Z,9.20
2023-01-06T01:14:41.015Z,7.10
2023-01-06T01:15:40.948Z,8.20
2023-01-06T01:16:40.857Z,10.70
2023-01-06T01:17:40.855Z,8.00
2023-01-06T01:18:40.828Z,8.20
2023-01-06T01:19:41.643Z,10.10
2023-01-06T01:20:40.808Z,10.20
2023-01-06T01:21:40.801Z,8.70
2023-01-06T01:22:40.795Z,7.60
2023-01-06T01:23:40.787Z,11.20
2023-01-06T01:24:41.244Z,5.60
2023-01-06T01:25:40.796Z,8.90
2023-01-06T01:26:40.755Z,9.30
2023-01-06T01:27:40.749Z,8.50
2023-01-06T01:28:40.749Z,6.10
2023-01-06T01:29:40.721Z,8.10
2023-01-06T01:30:40.720Z,7.10
2023-01-06T01:31:40.737Z,7.40
2023-01-06T01:32:40.695Z,9.50
2023-01-06T01:33:40.687Z,6.80
2023-01-06T01:34:40.674Z,6.10
2023-01-06T01:35:41.473Z,6.90
2023-01-06T01:36:40.647Z,7.70
2023-01-06T01:37:40.659Z,8.00
2023-01-06T01:38:40.624Z,8.70
2023-01-06T01:39:40.635Z,8.50
2023-01-06T01:40:40.605Z,5.70
2023-01-06T01:41:40.599Z,9.70
2023-01-06T01:42:40.601Z,8.50
2023-01-06T01:43:40.595Z,8.20
2023-01-06T01:44:40.584Z,8.50
2023-01-06T01:45:40.569Z,9.50
2023-01-06T01:46:40.597Z,7.70
2023-01-06T01:47:40.544Z,6.60
2023-01-06T01:48:40.898Z,7.10
2023-01-06T01:49:40.537Z,7.10
2023-01-06T01:50:40.503Z,8.50
2023-01-06T01:51:40.504Z,7.70
2023-01-06T01:52:40.476Z,5.20
2023-01-06T01:53:40.906Z,7.40
2023-01-06T01:54:40.460Z,8.40
2023-01-06T01:55:40.465Z,10.40
2023-01-06T01:56:40.457Z,8.00
2023-01-06T01:57:40.456Z,11.00
2023-01-06T01:58:40.434Z,8.70
2023-01-06T01:59:40.433Z,8.90
2023-01-06T02:00:40.420Z,6.60
2023-01-06T02:01:40.519Z,11.80
2023-01-06T02:02:40.512Z,8.60
2023-01-06T02:03:40.384Z,9.00
2023-01-06T02:04:41.176Z,8.00
2023-01-06T02:05:40.359Z,7.20
2023-01-06T02:06:40.334Z,9.20
2023-01-06T02:07:40.359Z,10.00
2023-01-06T02:08:40.345Z,6.80
2023-01-06T02:09:40.336Z,8.20
2023-01-06T02:10:40.314Z,8.60
2023-01-06T02:11:40.294Z,6.50
2023-01-06T02:12:40.307Z,7.10
2023-01-06T02:13:40.275Z,5.70
2023-01-06T02:14:40.689Z,6.70
2023-01-06T02:15:40.301Z,6.40
2023-01-06T02:16:40.246Z,7.40
2023-01-06T02:17:40.242Z,9.20
2023-01-06T02:18:40.226Z,8.80
2023-01-06T02:19:40.218Z,8.80
2023-01-06T02:20:40.781Z,7.70
2023-01-06T02:21:40.195Z,10.10
2023-01-06T02:22:40.172Z,6.20
2023-01-06T02:23:40.176Z,7.80
2023-01-06T02:24:40.188Z,9.30
2023-01-06T02:25:40.168Z,8.10
2023-01-06T02:26:40.518Z,9.10
2023-01-06T02:27:40.136Z,9.70
2023-01-06T02:28:40.132Z,7.20
2023-01-06T02:29:40.117Z,9.00
2023-01-06T02:30:40.109Z,7.50
2023-01-06T02:31:40.105Z,9.80
2023-01-06T02:32:40.076Z,10.60
2023-01-06T02:33:40.068Z,7.80
2023-01-06T02:34:40.057Z,7.70
2023-01-06T02:35:40.049Z,11.90
2023-01-06T02:36:40.047Z,9.40
2023-01-06T02:37:40.034Z,10.30
2023-01-06T02:38:40.024Z,9.90
2023-01-06T02:39:40.505Z,7.40
2023-01-06T02:40:40.037Z,9.30
2023-01-06T02:41:40.001Z,7.20
2023-01-06T02:42:39.992Z,8.70
2023-01-06T02:43:39.967Z,8.50
2023-01-06T02:44:39.951Z,9.60
2023-01-06T02:45:39.975Z,10.50
2023-01-06T02:46:39.967Z,9.70
2023-01-06T02:47:39.932Z,9.70
2023-01-06T02:48:40.101Z,7.60
2023-01-06T02:49:39.911Z,11.30
2023-01-06T02:50:39.893Z,11.30
2023-01-06T02:51:39.895Z,9.80
2023-01-06T02:52:39.868Z,7.50
2023-01-06T02:53:39.877Z,8.70
2023-01-06T02:54:40.438Z,8.40
2023-01-06T02:55:39.845Z,10.00
2023-01-06T02:56:39.828Z,10.80
2023-01-06T02:57:39.832Z,9.30
2023-01-06T02:58:39.818Z,10.20
2023-01-06T02:59:40.139Z,8.50
2023-01-06T03:00:39.803Z,10.60
2023-01-06T03:01:39.862Z,8.10
2023-01-06T03:02:40.135Z,10.60
2023-01-06T03:03:39.798Z,8.90
2023-01-06T03:04:39.911Z,8.10
2023-01-06T03:05:40.204Z,9.10
2023-01-06T03:06:39.730Z,9.40
2023-01-06T03:07:39.735Z,8.80
2023-01-06T03:08:39.713Z,8.00
2023-01-06T03:09:39.741Z,9.30
2023-01-06T03:10:39.689Z,8.50
2023-01-06T03:11:39.698Z,10.80
2023-01-06T03:12:39.688Z,10.10
2023-01-06T03:13:39.676Z,8.10
2023-01-06T03:14:39.661Z,8.30
2023-01-06T03:15:39.647Z,7.30
2023-01-06T03:16:39.661Z,9.50
2023-01-06T03:17:39.688Z,10.70
2023-01-06T03:18:39.624Z,8.20
2023-01-06T03:19:39.620Z,11.80
2023-01-06T03:20:39.583Z,8.50
2023-01-06T03:21:39.588Z,7.70
2023-01-06T03:22:39.585Z,8.70
2023-01-06T03:23:39.572Z,12.10
2023-01-06T03:24:39.551Z,7.30
2023-01-06T03:25:39.963Z,7.80
2023-01-06T03:26:39.542Z,10.90
2023-01-06T03:27:39.528Z,7.60
2023-01-06T03:28:39.525Z,11.30
2023-01-06T03:29:39.998Z,9.40
2023-01-06T03:30:39.495Z,7.80
2023-01-06T03:31:39.951Z,10.10
2023-01-06T03:32:39.481Z,7.70
2023-01-06T03:33:39.468Z,10.30
2023-01-06T03:34:40.149Z,8.80
2023-01-06T03:35:39.477Z,7.20
2023-01-06T03:36:39.433Z,9.10
2023-01-06T03:37:39.440Z,9.70
2023-01-06T03:38:39.406Z,7.20
2023-01-06T03:39:39.416Z,7.00
2023-01-06T03:40:39.395Z,11.90
2023-01-06T03:41:39.402Z,9.80
2023-01-06T03:42:39.379Z,7.10
2023-01-06T03:43:39.378Z,7.30
2023-01-06T03:44:39.353Z,10.00
2023-01-06T03:45:39.337Z,8.30
2023-01-06T03:46:40.062Z,8.70
2023-01-06T03:47:39.323Z,10.20
2023-01-06T03:48:39.921Z,10.70
2023-01-06T03:49:39.313Z,9.30
2023-01-06T03:50:39.297Z,9.80
2023-01-06T03:51:39.307Z,8.10
2023-01-06T03:52:39.268Z,8.00
2023-01-06T03:53:39.273Z,11.40
2023-01-06T03:54:39.251Z,8.80
2023-01-06T03:55:39.251Z,8.20
2023-01-06T03:56:39.227Z,9.10
2023-01-06T03:57:39.218Z,10.10
2023-01-06T03:58:39.216Z,10.10
2023-01-06T03:59:39.211Z,8.40
2023-01-06T04:00:39.257Z,10.90
2023-01-06T04:01:39.331Z,12.80
2023-01-06T04:02:39.179Z,9.80
2023-01-06T04:03:39.194Z,11.60
2023-01-06T04:04:39.148Z,10.30
2023-01-06T04:05:39.142Z,11.10
2023-01-06T04:06:39.924Z,8.20
2023-01-06T04:07:39.132Z,10.60
2023-01-06T04:08:39.116Z,6.50
2023-01-06T04:09:39.105Z,9.10
2023-01-06T04:10:39.509Z,10.10
2023-01-06T04:11:39.096Z,11.90
2023-01-06T04:12:39.105Z,8.20
2023-01-06T04:13:39.067Z,6.10
2023-01-06T04:14:39.073Z,8.50
2023-01-06T04:15:39.040Z,7.90
2023-01-06T04:16:39.021Z,8.70
2023-01-06T04:17:39.027Z,10.30
2023-01-06T04:18:39.009Z,10.50
2023-01-06T04:19:39.012Z,10.20
2023-01-06T04:20:38.991Z,8.50
2023-01-06T04:21:38.980Z,7.30
2023-01-06T04:22:38.963Z,8.80
2023-01-06T04:23:38.976Z,8.60
2023-01-06T04:24:38.951Z,9.40
2023-01-06T04:25:39.353Z,7.60
2023-01-06T04:26:38.920Z,9.00
2023-01-06T04:27:38.956Z,8.20
2023-01-06T04:28:39.393Z,11.60
2023-01-06T04:29:39.318Z,7.10
2023-01-06T04:30:38.900Z,8.00
2023-01-06T04:31:38.922Z,5.70
2023-01-06T04:32:38.870Z,9.70
2023-01-06T04:33:38.866Z,7.30
2023-01-06T04:34:38.901Z,8.90
2023-01-06T04:35:38.840Z,6.90
2023-01-06T04:36:38.824Z,7.70
2023-01-06T04:37:38.821Z,7.30
2023-01-06T04:38:38.806Z,8.80
2023-01-06T04:39:38.796Z,8.50
2023-01-06T04:40:38.799Z,9.00
2023-01-06T04:41:39.213Z,9.80
2023-01-06T04:42:38.780Z,8.00
2023-01-06T04:43:38.764Z,9.20
2023-01-06T04:44:38.753Z,7.60
2023-01-06T04:45:39.215Z,8.40
2023-01-06T04:46:38.756Z,8.80
2023-01-06T04:47:38.735Z,7.60
2023-01-06T04:48:38.714Z,7.90
2023-01-06T04:49:38.697Z,7.50
2023-01-06T04:50:39.144Z,10.50
2023-01-06T04:51:38.689Z,6.90
2023-01-06T04:52:38.657Z,8.20
2023-01-06T04:53:38.665Z,8.60
2023-01-06T04:54:38.638Z,8.90
2023-01-06T04:55:39.083Z,8.30
2023-01-06T04:56:38.626Z,8.40
2023-01-06T04:57:38.621Z,8.70
2023-01-06T04:58:38.638Z,9.40
2023-01-06T04:59:38.596Z,8.60
2023-01-06T05:00:38.640Z,7.70
2023-01-06T05:01:38.799Z,11.70
2023-01-06T05:02:38.574Z,9.00
2023-01-06T05:03:38.637Z,11.60
2023-01-06T05:04:47.459Z,8.80
2023-01-06T05:05:38.544Z,9.60
2023-01-06T05:06:38.528Z,9.30
2023-01-06T05:07:38.516Z,8.60
2023-01-06T05:08:38.511Z,8.70
2023-01-06T05:09:38.490Z,9.50
2023-01-06T05:10:38.475Z,8.70
2023-01-06T05:11:38.882Z,7.80
2023-01-06T05:12:38.457Z,9.30
2023-01-06T05:13:38.455Z,10.50
2023-01-06T05:14:38.445Z,9.20
2023-01-06T05:15:38.438Z,9.70
2023-01-06T05:16:39.251Z,10.10
2023-01-06T05:17:38.420Z,8.40
2023-01-06T05:18:38.411Z,10.80
2023-01-06T05:19:38.402Z,12.30
2023-01-06T05:20:38.372Z,9.90
2023-01-06T05:21:38.367Z,9.90
2023-01-06T05:22:38.356Z,8.90
2023-01-06T05:23:38.361Z,9.80
2023-01-06T05:24:38.347Z,8.00
2023-01-06T05:25:38.327Z,9.10
2023-01-06T05:26:38.315Z,8.10
2023-01-06T05:27:38.308Z,9.20
2023-01-06T05:28:38.288Z,8.70
2023-01-06T05:29:38.288Z,9.60
2023-01-06T05:30:38.280Z,8.50
2023-01-06T05:31:38.294Z,13.20
2023-01-06T05:32:38.246Z,8.50
2023-01-06T05:33:38.237Z,10.80
2023-01-06T05:34:38.235Z,7.40
2023-01-06T05:35:39.242Z,8.10
2023-01-06T05:36:38.224Z,7.30
2023-01-06T05:37:38.205Z,8.80
2023-01-06T05:38:38.213Z,9.20
2023-01-06T05:39:38.182Z,8.40
2023-01-06T05:40:38.172Z,8.00
2023-01-06T05:41:38.164Z,8.60
2023-01-06T05:42:38.541Z,7.40
2023-01-06T05:43:38.139Z,10.90
2023-01-06T05:44:38.156Z,9.40
2023-01-06T05:45:38.252Z,7.00
2023-01-06T05:46:38.120Z,9.10
2023-01-06T05:47:38.140Z,11.00
2023-01-06T05:48:38.101Z,8.20
2023-01-06T05:49:38.091Z,6.90
2023-01-06T05:50:38.071Z,11.20
2023-01-06T05:51:38.058Z,8.00
2023-01-06T05:52:38.090Z,6.30
2023-01-06T05:53:38.045Z,8.40
2023-01-06T05:54:38.028Z,7.50
2023-01-06T05:55:38.025Z,7.20
2023-01-06T05:56:38.020Z,9.00
2023-01-06T05:57:38.007Z,5.90
2023-01-06T05:58:37.991Z,7.40
2023-01-06T05:59:37.995Z,6.60
2023-01-06T06:00:37.986Z,5.00
2023-01-06T06:01:38.457Z,7.00
2023-01-06T06:02:37.979Z,6.50
2023-01-06T06:03:37.970Z,6.00
2023-01-06T06:04:37.936Z,5.50
2023-01-06T06:05:37.928Z,8.20
2023-01-06T06:06:37.912Z,5.80
2023-01-06T06:07:37.912Z,6.20
2023-01-06T06:08:37.891Z,7.90
2023-01-06T06:09:37.876Z,7.30
2023-01-06T06:10:38.257Z,4.30
2023-01-06T06:11:37.856Z,5.90
2023-01-06T06:12:37.850Z,6.60
2023-01-06T06:13:37.836Z,7.80
2023-01-06T06:14:38.166Z,4.90
2023-01-06T06:15:37.813Z,6.40
2023-01-06T06:16:37.892Z,5.90
2023-01-06T06:17:37.806Z,7.10
2023-01-06T06:18:37.796Z,6.70
2023-01-06T06:19:38.521Z,5.90
2023-01-06T06:20:37.786Z,5.00
2023-01-06T06:21:37.760Z,5.90
2023-01-06T06:22:37.755Z,5.10
2023-01-06T06:23:37.752Z,5.90
2023-01-06T06:24:37.734Z,5.40
2023-01-06T06:25:37.721Z,6.00
2023-01-06T06:26:37.725Z,5.90
2023-01-06T06:27:37.700Z,6.20
2023-01-06T06:28:37.686Z,5.40
2023-01-06T06:29:37.681Z,6.00
2023-01-06T06:30:37.668Z,5.30
2023-01-06T06:31:37.745Z,5.60
2023-01-06T06:32:37.666Z,4.80
2023-01-06T06:33:37.645Z,6.30
2023-01-06T06:34:37.641Z,5.10
2023-01-06T06:35:37.608Z,6.10
2023-01-06T06:36:37.609Z,5.20
2023-01-06T06:37:37.604Z,4.60
2023-01-06T06:38:37.581Z,5.10
2023-01-06T06:39:37.942Z,4.30
2023-01-06T06:40:37.581Z,5.70
2023-01-06T06:41:37.556Z,4.50
2023-01-06T06:42:37.551Z,4.70
2023-01-06T06:43:37.529Z,5.60
2023-01-06T06:44:37.520Z,4.40
2023-01-06T06:45:37.525Z,5.40
2023-01-06T06:46:37.508Z,4.70
2023-01-06T06:47:37.491Z,4.60
2023-01-06T06:48:37.496Z,3.50
2023-01-06T06:49:37.482Z,4.70
2023-01-06T06:50:37.466Z,5.30
2023-01-06T06:51:37.453Z,5.80
2023-01-06T06:52:37.455Z,5.70
2023-01-06T06:53:37.420Z,5.60
2023-01-06T06:54:37.430Z,4.40
2023-01-06T06:55:37.421Z,4.90
2023-01-06T06:56:37.828Z,3.80
2023-01-06T06:57:37.343Z,5.70
2023-01-06T06:58:37.394Z,4.40
2023-01-06T06:59:37.471Z,4.40
2023-01-06T07:00:37.311Z,4.50
2023-01-06T07:01:37.785Z,4.50
2023-01-06T07:02:37.352Z,3.40
2023-01-06T07:03:37.289Z,3.90
2023-01-06T07:04:37.343Z,5.10
2023-01-06T07:05:37.251Z,3.90
2023-01-06T07:06:37.672Z,5.70
2023-01-06T07:07:37.233Z,3.60
2023-01-06T07:08:37.220Z,3.70
2023-01-06T07:09:37.603Z,4.30
2023-01-06T07:10:37.200Z,4.00
2023-01-06T07:11:37.202Z,3.60
2023-01-06T07:12:37.184Z,3.30
2023-01-06T07:13:37.186Z,4.20
2023-01-06T07:14:37.554Z,3.60
2023-01-06T07:15:37.180Z,3.80
2023-01-06T07:16:37.144Z,3.50
2023-01-06T07:17:37.125Z,3.70
2023-01-06T07:18:37.132Z,3.00
2023-01-06T07:19:37.892Z,3.50
2023-01-06T07:20:37.123Z,4.50
2023-01-06T07:21:37.487Z,3.80
2023-01-06T07:22:37.086Z,3.80
2023-01-06T07:23:37.066Z,3.70
2023-01-06T07:24:37.058Z,4.20
2023-01-06T07:25:37.057Z,2.40
2023-01-06T07:26:37.453Z,1.80
2023-01-06T07:27:37.027Z,3.00
2023-01-06T07:28:37.028Z,2.50
2023-01-06T07:29:37.018Z,4.10
2023-01-06T07:30:37.012Z,3.70
2023-01-06T07:31:37.016Z,2.90
2023-01-06T07:32:36.978Z,2.00
2023-01-06T07:33:36.959Z,3.20
2023-01-06T07:34:36.960Z,2.10
2023-01-06T07:35:36.954Z,3.00
2023-01-06T07:36:37.298Z,2.90
2023-01-06T07:37:36.928Z,2.60
2023-01-06T07:38:36.921Z,2.50
2023-01-06T07:39:36.905Z,2.50
2023-01-06T07:40:37.340Z,3.40
2023-01-06T07:41:36.887Z,4.50
2023-01-06T07:42:36.889Z,3.60
2023-01-06T07:43:36.885Z,4.00
2023-01-06T07:44:36.858Z,3.00
2023-01-06T07:45:36.869Z,4.00
2023-01-06T07:46:36.848Z,4.30
2023-01-06T07:47:36.830Z,3.80
2023-01-06T07:48:36.808Z,5.20
2023-01-06T07:49:36.817Z,7.70
2023-01-06T07:50:36.796Z,4.00
2023-01-06T07:51:36.777Z,2.60
2023-01-06T07:52:36.777Z,3.70
2023-01-06T07:53:36.772Z,3.20
2023-01-06T07:54:36.765Z,3.40
2023-01-06T07:55:37.190Z,3.20
2023-01-06T07:56:36.743Z,1.60
2023-01-06T07:57:36.724Z,2.50
2023-01-06T07:58:36.718Z,2.20
2023-01-06T07:59:36.690Z,2.60
2023-01-06T08:00:37.200Z,1.90
2023-01-06T08:01:36.772Z,2.20
2023-01-06T08:02:36.846Z,3.30
2023-01-06T08:03:36.651Z,2.00
2023-01-06T08:04:36.664Z,1.60
2023-01-06T08:05:37.048Z,2.80
2023-01-06T08:06:36.632Z,1.80
2023-01-06T08:07:37.335Z,2.80
2023-01-06T08:08:36.614Z,2.50
2023-01-06T08:09:36.592Z,1.70
2023-01-06T08:10:36.586Z,2.60
2023-01-06T08:11:36.589Z,1.90
2023-01-06T08:12:36.589Z,1.30
2023-01-06T08:13:36.560Z,1.20
2023-01-06T08:14:36.556Z,1.60
2023-01-06T08:15:36.546Z,1.80
2023-01-06T08:16:36.983Z,2.60
2023-01-06T08:17:36.517Z,1.90
2023-01-06T08:18:36.524Z,3.30
2023-01-06T08:19:36.551Z,1.50
2023-01-06T08:20:36.504Z,1.10
2023-01-06T08:21:36.483Z,1.60
2023-01-06T08:22:36.467Z,1.60
2023-01-06T08:23:36.454Z,2.20
2023-01-06T08:24:36.452Z,1.00
2023-01-06T08:25:36.446Z,1.00
2023-01-06T08:26:36.425Z,1.00
2023-01-06T08:27:37.288Z,1.90
2023-01-06T08:28:36.414Z,1.30
2023-01-06T08:29:36.404Z,2.10
2023-01-06T08:30:36.379Z,1.20
2023-01-06T08:31:36.878Z,1.00
2023-01-06T08:32:36.368Z,2.10
2023-01-06T08:33:36.359Z,2.00
2023-01-06T08:34:57.344Z,2.30
2023-01-06T08:35:36.359Z,1.50
2023-01-06T08:36:36.328Z,1.00
2023-01-06T08:37:36.319Z,1.20
2023-01-06T08:38:36.310Z,0.80
2023-01-06T08:39:36.689Z,1.30
2023-01-06T08:40:36.275Z,0.80
2023-01-06T08:41:36.308Z,0.60
2023-01-06T08:42:36.292Z,1.70
2023-01-06T08:43:36.254Z,1.20
2023-01-06T08:44:36.285Z,2.60
2023-01-06T08:45:36.247Z,1.10
2023-01-06T08:46:36.253Z,1.00
2023-01-06T08:47:36.222Z,1.20
2023-01-06T08:48:36.207Z,1.00
2023-01-06T08:49:36.187Z,1.80
2023-01-06T08:50:36.177Z,2.90
2023-01-06T08:51:36.171Z,1.80
2023-01-06T08:52:36.171Z,2.80
2023-01-06T08:53:36.224Z,1.00
2023-01-06T08:54:36.142Z,2.60
2023-01-06T08:55:36.142Z,1.20
2023-01-06T08:56:36.126Z,1.50
2023-01-06T08:57:36.106Z,1.20
2023-01-06T08:58:36.707Z,2.00
2023-01-06T08:59:36.094Z,1.20
2023-01-06T09:00:36.093Z,2.30
2023-01-06T09:01:36.280Z,1.20
2023-01-06T09:02:36.068Z,2.80
2023-01-06T09:03:36.059Z,2.30
2023-01-06T09:04:36.120Z,0.70
2023-01-06T09:05:36.042Z,1.90
2023-01-06T09:06:36.051Z,1.80
2023-01-06T09:07:35.998Z,3.20
2023-01-06T09:08:36.005Z,3.10
2023-01-06T09:09:35.981Z,2.40
2023-01-06T09:10:35.985Z,2.30
2023-01-06T09:11:35.970Z,3.70
2023-01-06T09:12:35.975Z,2.70
2023-01-06T09:13:35.959Z,3.00
2023-01-06T09:14:35.953Z,2.90
2023-01-06T09:15:35.945Z,4.30
2023-01-06T09:16:35.951Z,2.70
2023-01-06T09:17:35.899Z,2.50
2023-01-06T09:18:35.903Z,4.50
2023-01-06T09:19:35.891Z,2.30
2023-01-06T09:20:36.299Z,3.80
2023-01-06T09:21:35.870Z,1.60
2023-01-06T09:22:35.910Z,1.80
2023-01-06T09:23:35.853Z,1.80
2023-01-06T09:24:35.858Z,1.50
2023-01-06T09:25:35.841Z,1.60
2023-01-06T09:26:35.827Z,1.90
2023-01-06T09:27:35.822Z,1.90
2023-01-06T09:28:35.789Z,3.80
2023-01-06T09:29:35.779Z,1.90
2023-01-06T09:30:35.784Z,3.30
2023-01-06T09:31:35.866Z,2.40
2023-01-06T09:32:35.754Z,1.20
2023-01-06T09:33:35.747Z,2.80
2023-01-06T09:34:35.737Z,3.90
2023-01-06T09:35:35.726Z,1.90
2023-01-06T09:36:35.722Z,1.50
2023-01-06T09:37:35.701Z,2.50
2023-01-06T09:38:35.695Z,3.10
2023-01-06T09:39:35.674Z,2.80
2023-01-06T09:40:35.704Z,2.30
2023-01-06T09:41:35.653Z,4.30
2023-01-06T09:42:35.653Z,1.80
2023-01-06T09:43:35.657Z,3.00
2023-01-06T09:44:35.633Z,1.50
2023-01-06T09:45:35.624Z,2.80
2023-01-06T09:46:35.650Z,2.40
2023-01-06T09:47:35.602Z,2.30
2023-01-06T09:48:35.593Z,2.20
2023-01-06T09:49:35.576Z,2.60
2023-01-06T09:50:35.574Z,1.90
2023-01-06T09:51:35.565Z,3.50
2023-01-06T09:52:35.584Z,1.70
2023-01-06T09:53:35.549Z,2.70
2023-01-06T09:54:35.523Z,2.50
2023-01-06T09:55:35.570Z,1.40
2023-01-06T09:56:35.538Z,1.70
2023-01-06T09:57:35.561Z,2.40
2023-01-06T09:58:35.491Z,2.30
2023-01-06T09:59:35.499Z,2.50
2023-01-06T10:00:35.463Z,2.30
2023-01-06T10:01:35.485Z,3.70
2023-01-06T10:02:35.450Z,3.60
2023-01-06T10:03:35.493Z,2.10
2023-01-06T10:04:35.426Z,2.00
2023-01-06T10:05:35.434Z,2.30
2023-01-06T10:06:35.403Z,1.80
2023-01-06T10:07:35.388Z,2.10
2023-01-06T10:08:35.387Z,2.70
2023-01-06T10:09:35.382Z,3.20
2023-01-06T10:10:35.369Z,1.50
2023-01-06T10:11:35.354Z,2.70
2023-01-06T10:12:35.348Z,1.70
2023-01-06T10:13:35.714Z,1.40
2023-01-06T10:14:35.310Z,2.00
2023-01-06T10:15:35.298Z,2.20
2023-01-06T10:16:35.340Z,1.90
2023-01-06T10:17:35.287Z,1.50
2023-01-06T10:18:35.269Z,3.30
2023-01-06T10:19:35.275Z,1.40
2023-01-06T10:20:35.263Z,2.10
2023-01-06T10:21:35.242Z,3.10
2023-01-06T10:22:35.230Z,1.90
2023-01-06T10:23:35.256Z,2.70
2023-01-06T10:24:35.201Z,2.10
2023-01-06T10:25:35.203Z,1.90
2023-01-06T10:26:35.198Z,1.80
2023-01-06T10:27:35.189Z,1.40
2023-01-06T10:28:35.173Z,2.20
2023-01-06T10:29:35.184Z,2.20
2023-01-06T10:30:40.286Z,1.00
2023-01-06T10:31:35.431Z,1.20
2023-01-06T10:32:35.127Z,2.60
2023-01-06T10:33:35.120Z,3.00
2023-01-06T10:34:35.137Z,2.90
2023-01-06T10:35:35.104Z,1.30
2023-01-06T10:36:35.079Z,1.20
2023-01-06T10:37:35.072Z,1.00
2023-01-06T10:38:35.075Z,1.10
2023-01-06T10:39:35.085Z,1.10
2023-01-06T10:40:35.043Z,2.50
2023-01-06T10:41:35.074Z,2.70
2023-01-06T10:42:35.019Z,1.30
2023-01-06T10:43:35.028Z,2.30
2023-01-06T10:44:35.020Z,1.90
2023-01-06T10:45:35.002Z,3.20
2023-01-06T10:46:35.038Z,1.70
2023-01-06T10:47:34.981Z,0.60
2023-01-06T10:48:34.964Z,2.90
2023-01-06T10:49:35.040Z,1.10
2023-01-06T10:50:34.949Z,1.50
2023-01-06T10:51:35.004Z,1.90
2023-01-06T10:52:35.568Z,1.50
2023-01-06T10:53:34.945Z,1.20
2023-01-06T10:54:34.958Z,1.10
2023-01-06T10:55:34.896Z,1.50
2023-01-06T10:56:34.874Z,1.50
2023-01-06T10:57:35.073Z,1.50
2023-01-06T10:58:34.852Z,1.60
2023-01-06T10:59:34.848Z,1.50
2023-01-06T11:00:34.973Z,1.40
2023-01-06T11:01:35.128Z,0.70
2023-01-06T11:02:34.900Z,1.20
2023-01-06T11:03:35.308Z,1.70
2023-01-06T11:04:35.199Z,2.20
2023-01-06T11:05:34.866Z,2.20
2023-01-06T11:06:34.767Z,1.00
2023-01-06T11:07:34.818Z,1.10
2023-01-06T11:08:34.803Z,1.00
2023-01-06T11:09:34.770Z,1.40
2023-01-06T11:10:34.796Z,1.30
2023-01-06T11:11:34.726Z,1.90
2023-01-06T11:12:34.719Z,3.20
2023-01-06T11:13:34.756Z,1.90
2023-01-06T11:14:34.695Z,2.20
2023-01-06T11:15:34.682Z,1.10
2023-01-06T11:16:34.726Z,1.00
2023-01-06T11:17:34.683Z,1.40
2023-01-06T11:18:34.641Z,2.20
2023-01-06T11:19:34.627Z,1.10
2023-01-06T11:20:34.658Z,1.30
2023-01-06T11:21:35.021Z,2.50
2023-01-06T11:22:34.668Z,1.40
2023-01-06T11:23:34.633Z,1.00
2023-01-06T11:24:34.571Z,2.00
2023-01-06T11:25:34.582Z,2.00
2023-01-06T11:26:34.562Z,2.80
2023-01-06T11:27:34.567Z,1.40
2023-01-06T11:28:34.529Z,1.00
2023-01-06T11:29:34.536Z,2.30
2023-01-06T11:30:34.529Z,1.30
2023-01-06T11:31:34.555Z,1.90
2023-01-06T11:32:34.498Z,2.00
2023-01-06T11:33:34.512Z,0.80
2023-01-06T11:34:34.474Z,2.10
2023-01-06T11:35:34.476Z,1.30
2023-01-06T11:36:34.453Z,1.40
2023-01-06T11:37:34.765Z,2.20
2023-01-06T11:38:34.433Z,1.90
2023-01-06T11:39:34.525Z,3.10
2023-01-06T11:40:34.457Z,1.30
2023-01-06T11:41:34.433Z,1.60
2023-01-06T11:42:34.399Z,1.00
2023-01-06T11:43:34.387Z,1.10
2023-01-06T11:44:34.391Z,1.90
2023-01-06T11:45:34.449Z,2.30
2023-01-06T11:46:34.341Z,1.70
2023-01-06T11:47:34.334Z,1.10
2023-01-06T11:48:34.365Z,2.00
2023-01-06T11:49:34.359Z,2.20
2023-01-06T11:50:34.339Z,2.60
2023-01-06T11:51:34.302Z,2.00
2023-01-06T11:52:34.346Z,2.50
2023-01-06T11:53:34.305Z,1.90
2023-01-06T11:54:34.748Z,1.20
2023-01-06T11:55:34.271Z,2.50
2023-01-06T11:56:34.242Z,2.30
2023-01-06T11:57:34.232Z,1.70
2023-01-06T11:58:34.236Z,4.40
2023-01-06T11:59:34.225Z,1.60
2023-01-06T12:00:34.497Z,2.20
2023-01-06T12:01:34.225Z,1.10
2023-01-06T12:02:34.236Z,3.10
2023-01-06T12:03:34.209Z,1.40
2023-01-06T12:04:34.184Z,1.90
2023-01-06T12:05:34.154Z,1.00
2023-01-06T12:06:34.155Z,1.90
2023-01-06T12:07:34.161Z,1.40
2023-01-06T12:08:34.136Z,1.60
2023-01-06T12:09:34.142Z,2.00
2023-01-06T12:10:34.130Z,1.40
2023-01-06T12:11:34.094Z,1.20
2023-01-06T12:12:34.094Z,1.20
2023-01-06T12:13:44.488Z,0.80
2023-01-06T12:14:34.075Z,2.30
2023-01-06T12:15:34.049Z,1.60
2023-01-06T12:16:34.128Z,1.60
2023-01-06T12:17:34.180Z,0.80
2023-01-06T12:18:34.027Z,1.30
2023-01-06T12:19:34.013Z,1.60
2023-01-06T12:20:33.991Z,1.00
2023-01-06T12:21:33.997Z,2.00
2023-01-06T12:22:33.976Z,1.50
2023-01-06T12:23:33.963Z,2.50
2023-01-06T12:24:33.938Z,1.80
2023-01-06T12:25:33.959Z,1.30
2023-01-06T12:26:33.926Z,3.90
2023-01-06T12:27:33.917Z,1.00
2023-01-06T12:28:33.927Z,3.20
2023-01-06T12:29:33.903Z,0.80
2023-01-06T12:30:33.966Z,0.80
2023-01-06T12:31:33.883Z,2.60
2023-01-06T12:32:33.869Z,1.90
2023-01-06T12:33:33.908Z,1.60
2023-01-06T12:34:33.843Z,1.00
2023-01-06T12:35:33.845Z,2.90
2023-01-06T12:36:33.835Z,2.10
2023-01-06T12:37:33.832Z,1.70
2023-01-06T12:38:33.814Z,1.80
2023-01-06T12:39:33.809Z,2.60
2023-01-06T12:40:33.779Z,1.90
2023-01-06T12:41:33.802Z,1.50
2023-01-06T12:42:33.765Z,2.30
2023-01-06T12:43:33.746Z,2.20
2023-01-06T12:44:33.738Z,3.60
2023-01-06T12:45:33.819Z,1.10
2023-01-06T12:46:33.753Z,2.10
2023-01-06T12:47:34.103Z,2.20
2023-01-06T12:48:33.800Z,2.10
2023-01-06T12:49:33.688Z,1.50
2023-01-06T12:50:33.675Z,1.60
2023-01-06T12:51:33.672Z,1.20
2023-01-06T12:52:33.685Z,2.30
2023-01-06T12:53:33.658Z,1.80
2023-01-06T12:54:33.639Z,3.50
2023-01-06T12:55:33.633Z,2.50
2023-01-06T12:56:33.634Z,1.50
2023-01-06T12:57:33.614Z,1.60
2023-01-06T12:58:34.346Z,1.70
2023-01-06T12:59:33.588Z,2.00
2023-01-06T13:00:33.578Z,2.20
2023-01-06T13:01:33.669Z,2.30
2023-01-06T13:02:35.633Z,3.70
2023-01-06T13:03:33.573Z,2.30
2023-01-06T13:04:33.644Z,3.10
2023-01-06T13:05:33.535Z,1.30
2023-01-06T13:06:33.511Z,3.40
2023-01-06T13:07:33.491Z,2.90
2023-01-06T13:08:33.519Z,1.00
2023-01-06T13:09:33.575Z,2.30
2023-01-06T13:10:33.914Z,2.70
2023-01-06T13:11:33.452Z,1.30
2023-01-06T13:12:33.443Z,1.80
2023-01-06T13:13:33.439Z,2.40
2023-01-06T13:14:33.645Z,2.10
2023-01-06T13:15:33.443Z,2.40